createdAt,value
2018-05-01T00:02:00.000Z,97854
2018-05-01T00:07:00.000Z,97868
2018-05-01T00:12:00.000Z,97868
2018-05-01T00:17:00.000Z,97874
2018-05-01T00:22:00.000Z,97880
2018-05-01T00:27:00.000Z,97877
2018-05-01T00:32:00.000Z,97881
2018-05-01T00:37:00.000Z,97884
2018-05-01T00:42:00.000Z,97885
2018-05-01T00:47:00.000Z,97889
2018-05-01T00:52:00.000Z,97900
2018-05-01T00:57:00.000Z,97898
2018-05-01T01:02:00.000Z,97898
2018-05-01T01:07:00.000Z,97894
2018-05-01T01:12:00.000Z,97897
2018-05-01T01:17:00.000Z,97905
2018-05-01T01:22:00.000Z,97896
2018-05-01T01:27:00.000Z,97893
2018-05-01T01:32:00.000Z,97900
2018-05-01T01:37:00.000Z,97898
2018-05-01T01:42:00.000Z,97902
2018-05-01T01:47:00.000Z,97897
2018-05-01T01:52:00.000Z,97895
2018-05-01T01:57:00.000Z,97902
2018-05-01T02:03:00.000Z,97922
2018-05-01T02:08:00.000Z,97922
2018-05-01T02:13:00.000Z,97916
2018-05-01T02:18:00.000Z,97933
2018-05-01T02:23:00.000Z,97941
2018-05-01T02:28:00.000Z,97946
2018-05-01T02:33:00.000Z,97943
2018-05-01T02:38:00.000Z,97941
2018-05-01T02:43:00.000Z,97951
2018-05-01T02:48:00.000Z,97951
2018-05-01T02:53:00.000Z,97935
2018-05-01T02:58:00.000Z,97935
2018-05-01T03:03:00.000Z,97946
2018-05-01T03:08:00.000Z,97947
2018-05-01T03:13:00.000Z,97940
2018-05-01T03:18:00.000Z,97958
2018-05-01T03:23:00.000Z,97957
2018-05-01T03:28:00.000Z,97955
2018-05-01T03:33:00.000Z,97953
2018-05-01T03:38:00.000Z,97960
2018-05-01T03:43:00.000Z,97947
2018-05-01T03:48:00.000Z,97938
2018-05-01T03:53:00.000Z,97947
2018-05-01T03:58:00.000Z,97965
2018-05-01T04:03:00.000Z,97969
2018-05-01T04:08:00.000Z,97976
2018-05-01T04:13:00.000Z,97973
2018-05-01T04:18:00.000Z,97993
2018-05-01T04:23:00.000Z,98003
2018-05-01T04:28:00.000Z,97995
2018-05-01T04:33:00.000Z,98020
2018-05-01T04:38:00.000Z,98018
2018-05-01T04:43:00.000Z,98030
2018-05-01T04:48:00.000Z,98033
2018-05-01T04:53:00.000Z,98039
2018-05-01T04:58:00.000Z,98050
2018-05-01T05:03:00.000Z,98057
2018-05-01T05:08:00.000Z,98079
2018-05-01T05:13:00.000Z,98093
2018-05-01T05:18:00.000Z,98098
2018-05-01T05:23:00.000Z,98105
2018-05-01T05:28:00.000Z,98093
2018-05-01T05:33:00.000Z,98100
2018-05-01T05:38:00.000Z,98120
2018-05-01T05:43:00.000Z,98120
2018-05-01T05:48:00.000Z,98132
2018-05-01T05:53:00.000Z,98150
2018-05-01T05:58:00.000Z,98145
2018-05-01T06:03:00.000Z,98160
2018-05-01T06:08:00.000Z,98173
2018-05-01T06:13:00.000Z,98174
2018-05-01T06:18:00.000Z,98166
2018-05-01T06:23:00.000Z,98166
2018-05-01T06:28:00.000Z,98178
2018-05-01T06:33:00.000Z,98183
2018-05-01T06:38:00.000Z,98185
2018-05-01T06:43:00.000Z,98171
2018-05-01T06:48:00.000Z,98189
2018-05-01T06:53:00.000Z,98204
2018-05-01T06:58:00.000Z,98211
2018-05-01T07:03:00.000Z,98215
2018-05-01T07:08:00.000Z,98217
2018-05-01T07:13:00.000Z,98204
2018-05-01T07:18:00.000Z,98218
2018-05-01T07:23:00.000Z,98224
2018-05-01T07:28:00.000Z,98222
2018-05-01T07:33:00.000Z,98221
2018-05-01T07:38:00.000Z,98238
2018-05-01T07:43:00.000Z,98244
2018-05-01T07:48:00.000Z,98249
2018-05-01T07:53:00.000Z,98255
2018-05-01T07:59:00.000Z,98248
2018-05-01T08:04:00.000Z,98252
2018-05-01T08:09:00.000Z,98260
2018-05-01T08:14:00.000Z,98258
2018-05-01T08:19:00.000Z,98262
2018-05-01T08:24:00.000Z,98267
2018-05-01T08:29:00.000Z,98270
2018-05-01T08:34:00.000Z,98284
2018-05-01T08:39:00.000Z,98293
2018-05-01T08:44:00.000Z,98286
2018-05-01T08:49:00.000Z,98299
2018-05-01T08:54:00.000Z,98303
2018-05-01T08:59:00.000Z,98300
2018-05-01T09:04:00.000Z,98303
2018-05-01T09:09:00.000Z,98292
2018-05-01T09:14:00.000Z,98288
2018-05-01T09:19:00.000Z,98284
2018-05-01T09:24:00.000Z,98274
2018-05-01T09:29:00.000Z,98267
2018-05-01T09:34:00.000Z,98261
2018-05-01T09:39:00.000Z,98266
2018-05-01T09:44:00.000Z,98278
2018-05-01T09:49:00.000Z,98282
2018-05-01T09:54:00.000Z,98280
2018-05-01T09:59:00.000Z,98284
2018-05-01T10:04:00.000Z,98282
2018-05-01T10:09:00.000Z,98263
2018-05-01T10:14:00.000Z,98266
2018-05-01T10:19:00.000Z,98264
2018-05-01T10:24:00.000Z,98262
2018-05-01T10:29:00.000Z,98254
2018-05-01T10:34:00.000Z,98259
2018-05-01T10:39:00.000Z,98256
2018-05-01T10:44:00.000Z,98250
2018-05-01T10:49:00.000Z,98246
2018-05-01T10:54:00.000Z,98244
2018-05-01T10:59:00.000Z,98239
2018-05-01T11:04:00.000Z,98247
2018-05-01T11:09:00.000Z,98254
2018-05-01T11:14:00.000Z,98263
2018-05-01T11:19:00.000Z,98263
2018-05-01T11:24:00.000Z,98261
2018-05-01T11:29:00.000Z,98259
2018-05-01T11:34:00.000Z,98287
2018-05-01T11:39:00.000Z,98284
2018-05-01T11:44:00.000Z,98295
2018-05-01T11:49:00.000Z,98286
2018-05-01T11:54:00.000Z,98278
2018-05-01T11:59:00.000Z,98294
2018-05-01T12:04:00.000Z,98276
2018-05-01T12:09:00.000Z,98269
2018-05-01T12:14:00.000Z,98271
2018-05-01T12:19:00.000Z,98259
2018-05-01T12:24:00.000Z,98270
2018-05-01T12:29:00.000Z,98273
2018-05-01T12:34:00.000Z,98284
2018-05-01T12:39:00.000Z,98267
2018-05-01T12:44:00.000Z,98275
2018-05-01T12:49:00.000Z,98265
2018-05-01T12:54:00.000Z,98273
2018-05-01T12:59:00.000Z,98278
2018-05-01T13:04:00.000Z,98271
2018-05-01T13:09:00.000Z,98275
2018-05-01T13:14:00.000Z,98272
2018-05-01T13:19:00.000Z,98256
2018-05-01T13:24:00.000Z,98261
2018-05-01T13:29:00.000Z,98267
2018-05-01T13:34:00.000Z,98263
2018-05-01T13:39:00.000Z,98255
2018-05-01T13:44:00.000Z,98261
2018-05-01T13:49:00.000Z,98265
2018-05-01T13:54:00.000Z,98248
2018-05-01T13:59:00.000Z,98250
2018-05-01T14:05:00.000Z,98250
2018-05-01T14:10:00.000Z,98240
2018-05-01T14:15:00.000Z,98232
2018-05-01T14:20:00.000Z,98230
2018-05-01T14:25:00.000Z,98216
2018-05-01T14:30:00.000Z,98220
2018-05-01T14:35:00.000Z,98234
2018-05-01T14:40:00.000Z,98227
2018-05-01T14:45:00.000Z,98210
2018-05-01T14:50:00.000Z,98213
2018-05-01T14:55:00.000Z,98213
2018-05-01T15:00:00.000Z,98218
2018-05-01T15:05:00.000Z,98214
2018-05-01T15:10:00.000Z,98210
2018-05-01T15:15:00.000Z,98216
2018-05-01T15:20:00.000Z,98206
2018-05-01T15:25:00.000Z,98202
2018-05-01T15:30:00.000Z,98200
2018-05-01T15:35:00.000Z,98200
2018-05-01T15:40:00.000Z,98198
2018-05-01T15:45:00.000Z,98195
2018-05-01T15:50:00.000Z,98205
2018-05-01T15:55:00.000Z,98205
2018-05-01T16:00:00.000Z,98204
2018-05-01T16:05:00.000Z,98199
2018-05-01T16:10:00.000Z,98191
2018-05-01T16:15:00.000Z,98180
2018-05-01T16:20:00.000Z,98178
2018-05-01T16:25:00.000Z,98167
2018-05-01T16:30:00.000Z,98162
2018-05-01T16:35:00.000Z,98148
2018-05-01T16:40:00.000Z,98152
2018-05-01T16:45:00.000Z,98140
2018-05-01T16:50:00.000Z,98150
2018-05-01T16:55:00.000Z,98141
2018-05-01T17:00:00.000Z,98153
2018-05-01T17:05:00.000Z,98150
2018-05-01T17:10:00.000Z,98148
2018-05-01T17:15:00.000Z,98150
2018-05-01T17:20:00.000Z,98159
2018-05-01T17:25:00.000Z,98156
2018-05-01T17:30:00.000Z,98161
2018-05-01T17:35:00.000Z,98175
2018-05-01T17:40:00.000Z,98175
2018-05-01T17:45:00.000Z,98178
2018-05-01T17:50:00.000Z,98188
2018-05-01T17:55:00.000Z,98177
2018-05-01T18:00:00.000Z,98187
2018-05-01T18:05:00.000Z,98201
2018-05-01T18:10:00.000Z,98196
2018-05-01T18:15:00.000Z,98201
2018-05-01T18:20:00.000Z,98201
2018-05-01T18:25:00.000Z,98192
2018-05-01T18:30:00.000Z,98199
2018-05-01T18:35:00.000Z,98201
2018-05-01T18:40:00.000Z,98210
2018-05-01T18:45:00.000Z,98210
2018-05-01T18:50:00.000Z,98210
2018-05-01T18:55:00.000Z,98212
2018-05-01T19:00:00.000Z,98224
2018-05-01T19:06:00.000Z,98234
2018-05-01T19:11:00.000Z,98238
2018-05-01T19:16:00.000Z,98249
2018-05-01T19:21:00.000Z,98256
2018-05-01T19:26:00.000Z,98249
2018-05-01T19:31:00.000Z,98241
2018-05-01T19:36:00.000Z,98245
2018-05-01T19:41:00.000Z,98242
2018-05-01T19:46:00.000Z,98248
2018-05-01T19:51:00.000Z,98256
2018-05-01T19:56:00.000Z,98266
2018-05-01T20:01:00.000Z,98260
2018-05-01T20:06:00.000Z,98268
2018-05-01T20:11:00.000Z,98256
2018-05-01T20:16:00.000Z,98253
2018-05-01T20:21:00.000Z,98261
2018-05-01T20:26:00.000Z,98258
2018-05-01T20:31:00.000Z,98261
2018-05-01T20:36:00.000Z,98256
2018-05-01T20:41:00.000Z,98259
2018-05-01T20:46:00.000Z,98255
2018-05-01T20:51:00.000Z,98255
2018-05-01T20:56:00.000Z,98263
2018-05-01T21:01:00.000Z,98262
2018-05-01T21:06:00.000Z,98261
2018-05-01T21:11:00.000Z,98265
2018-05-01T21:16:00.000Z,98280
2018-05-01T21:21:00.000Z,98293
2018-05-01T21:26:00.000Z,98288
2018-05-01T21:31:00.000Z,98290
2018-05-01T21:36:00.000Z,98293
2018-05-01T21:41:00.000Z,98305
2018-05-01T21:46:00.000Z,98304
2018-05-01T21:51:00.000Z,98304
2018-05-01T21:56:00.000Z,98305
2018-05-01T22:01:00.000Z,98313
2018-05-01T22:06:00.000Z,98321
2018-05-01T22:11:00.000Z,98314
2018-05-01T22:16:00.000Z,98319
2018-05-01T22:21:00.000Z,98327
2018-05-01T22:26:00.000Z,98327
2018-05-01T22:31:00.000Z,98347
2018-05-01T22:36:00.000Z,98346
2018-05-01T22:41:00.000Z,98353
2018-05-01T22:46:00.000Z,98340
2018-05-01T22:51:00.000Z,98345
2018-05-01T22:56:00.000Z,98339
2018-05-01T23:01:00.000Z,98338
2018-05-01T23:06:00.000Z,98336
2018-05-01T23:11:00.000Z,98337
2018-05-01T23:16:00.000Z,98338
2018-05-01T23:21:00.000Z,98345
2018-05-01T23:26:00.000Z,98336
2018-05-01T23:31:00.000Z,98336
2018-05-01T23:36:00.000Z,98340
2018-05-01T23:41:00.000Z,98325
2018-05-01T23:46:00.000Z,98330
2018-05-01T23:51:00.000Z,98328
2018-05-01T23:56:00.000Z,98331
